Mallard — WDJ6592 — position and weather

sailwx.info

Track history (hours):
 
Tides and Currents Weather Stations Pressure Air Temp Water Temp Dewpoint Dewpoint Depression Visibility Wind Speed Wind Dir Waves Ship Positions

Mallard

Owner: Kirby Inland Marine LP, Houston, TX. More information available from US FCC via Universal Licensing System and Coast Guard Vessel Documentation Center.

Last reported at 2018-Jun-15 08:23 UTC. Time now 2018-Jun-19 01:24 UTC.
Position N 29°44' W 095°02'.

Length 108 m; draft 1.5 m.

Type: . MMSI: 367799320.

Date/timePositionNaut miles runAvg speedWind from/ knotsBaromVisibWave heightAir tempDewpointWater temp
2018-Jun-15 08:23N 29°44' W 095°02'2 3.9
2018-Jun-15 07:57N 29°42' W 095°01'2 4.1
2018-Jun-15 07:30N 29°41' W 094°59'6 4.7
2018-Jun-15 06:09N 29°35' W 094°56'1 5.2
2018-Jun-15 05:59N 29°35' W 094°56'14 4.5
2018-Jun-15 02:56N 29°23' W 094°48'1 2.4
2018-Jun-15 02:30N 29°22' W 094°48'3 5.2
2018-Jun-15 02:00N 29°23' W 094°51'2 3.5
2018-Jun-15 01:29N 29°22' W 094°53'1 1.3
2018-Jun-15 00:40N 29°22' W 094°54'0 0.2
2018-Jun-15 00:31N 29°22' W 094°54'3 4.6
2018-Jun-14 23:56N 29°23' W 094°52'2 5.8
2018-Jun-14 23:31N 29°22' W 094°49'6 3.2
2018-Jun-14 21:45N 29°25' W 094°44'1 3.7
2018-Jun-14 21:21N 29°24' W 094°45'1 3.6
2018-Jun-14 21:00N 29°23' W 094°46'2 3.8
2018-Jun-14 20:30N 29°22' W 094°48'2 3.6
2018-Jun-14 20:00N 29°22' W 094°50'2 4.3
2018-Jun-14 19:30N 29°23' W 094°52'1 1.7
2018-Jun-14 18:41N 29°22' W 094°53'0 0.0
2018-Jun-14 09:25N 29°22' W 094°53'0 0.0
2018-Jun-14 08:49N 29°22' W 094°53'0 0.0
2018-Jun-14 08:13N 29°22' W 094°53'0 0.0
2018-Jun-14 07:31N 29°22' W 094°53'0 0.0
2018-Jun-14 07:28N 29°22' W 094°53'0 0.0
2018-Jun-14 04:22N 29°22' W 094°53'0 0.0
2018-Jun-14 00:46N 29°22' W 094°53'0 0.0
2018-Jun-14 00:10N 29°22' W 094°53'0 0.0
2018-Jun-13 23:58N 29°22' W 094°53'0 0.0
2018-Jun-13 22:07N 29°22' W 094°53'0 0.0
2018-Jun-13 21:58N 29°22' W 094°53'0 0.0
2018-Jun-13 19:23N 29°22' W 094°53'1 1.7
2018-Jun-13 19:00N 29°22' W 094°54'1 1.2
2018-Jun-13 18:26N 29°22' W 094°53'1 3.1
2018-Jun-13 17:59N 29°23' W 094°52'3 5.4
2018-Jun-13 17:29N 29°22' W 094°49'13 5.1
2018-Jun-13 14:56N 29°34' W 094°55'3 5.3
2018-Jun-13 14:22N 29°36' W 094°57'2 5.5
2018-Jun-13 14:00N 29°38' W 094°58'3 5.3
2018-Jun-13 13:30N 29°41' W 094°59'2 0.1
2018-Jun-12 18:16N 29°42' W 095°01'2 4.8
2018-Jun-12 17:55N 29°42' W 094°59'2 0.5
2018-Jun-12 12:39N 29°41' W 094°57'1 4.0
2018-Jun-12 12:20N 29°41' W 094°58'1 3.7
2018-Jun-12 12:00N 29°41' W 094°59'  
2018-Jun-09 06:43N 29°46' W 095°05'1 2.7
2018-Jun-09 06:12N 29°45' W 095°06'0 0.2
2018-Jun-09 04:05N 29°45' W 095°06'0 2.6
2018-Jun-09 03:56N 29°45' W 095°06'2 1.9
2018-Jun-09 02:55N 29°47' W 095°04'0 0.1
2018-Jun-09 02:29N 29°47' W 095°04'0 0.0
2018-Jun-09 01:58N 29°47' W 095°04'0 0.0
2018-Jun-09 01:29N 29°47' W 095°04'4 0.2
2018-Jun-08 06:38N 29°43' W 095°03'0 0.9
2018-Jun-08 06:28N 29°43' W 095°03'0 0.0
2018-Jun-08 03:02N 29°43' W 095°03'0 0.0
2018-Jun-08 02:44N 29°43' W 095°03'2 0.1
2018-Jun-07 07:43N 29°42' W 095°01'1 5.4
2018-Jun-07 07:28N 29°42' W 094°59'2 4.2
2018-Jun-07 06:56N 29°41' W 094°57'1 3.1
2018-Jun-07 06:30N 29°41' W 094°55'1 1.8
2018-Jun-07 06:00N 29°42' W 094°56'3 1.8
2018-Jun-07 04:28N 29°45' W 094°56'3 0.9
2018-Jun-07 01:23N 29°42' W 094°56'2 1.9
2018-Jun-07 00:35N 29°40' W 094°56'1 4.5
2018-Jun-07 00:23N 29°41' W 094°57'2 3.8
2018-Jun-06 23:59N 29°41' W 094°59'5 0.4
2018-Jun-06 10:26N 29°37' W 094°57'3 6.6
2018-Jun-06 09:56N 29°34' W 094°55'3 6.6
2018-Jun-06 09:27N 29°31' W 094°53'8 5.7
2018-Jun-06 08:00N 29°24' W 094°49'2 4.0
2018-Jun-06 07:30N 29°22' W 094°49'3 6.2
2018-Jun-06 07:00N 29°23' W 094°52'1 2.1
2018-Jun-06 06:29N 29°22' W 094°54'0 0.0
2018-Jun-06 05:59N 29°22' W 094°54'0 0.2
2018-Jun-06 05:25N 29°22' W 094°53'1 2.0
2018-Jun-06 04:58N 29°22' W 094°54'1 1.0
2018-Jun-06 04:02N 29°22' W 094°53'0 0.6
2018-Jun-06 04:00N 29°22' W 094°53'0 0.0
2018-Jun-05 23:19N 29°22' W 094°53'0 0.0
2018-Jun-05 09:27N 29°22' W 094°53'0 0.1
2018-Jun-05 08:56N 29°22' W 094°53'  
Track history (hours):
 
Tides and Currents Weather Stations Pressure Air Temp Water Temp Dewpoint Dewpoint Depression Visibility Wind Speed Wind Dir Waves Ship Positions

Mallard

Owner: Kirby Inland Marine LP, Houston, TX. More information available from US FCC via Universal Licensing System and Coast Guard Vessel Documentation Center.

Last reported at 2018-Jun-15 08:23 UTC. Time now 2018-Jun-19 01:24 UTC.
Position N 29°44' W 095°02'.

Length 108 m; draft 1.5 m.

Type: . MMSI: 367799320.

Date/timePositionNaut miles runAvg speedWind from/ knotsBaromVisibWave heightAir tempDewpointWater temp
2018-Jun-15 08:23N 29°44' W 095°02'2 3.9
2018-Jun-15 07:57N 29°42' W 095°01'2 4.1
2018-Jun-15 07:30N 29°41' W 094°59'6 4.7
2018-Jun-15 06:09N 29°35' W 094°56'1 5.2
2018-Jun-15 05:59N 29°35' W 094°56'14 4.5
2018-Jun-15 02:56N 29°23' W 094°48'1 2.4
2018-Jun-15 02:30N 29°22' W 094°48'3 5.2
2018-Jun-15 02:00N 29°23' W 094°51'2 3.5
2018-Jun-15 01:29N 29°22' W 094°53'1 1.3
2018-Jun-15 00:40N 29°22' W 094°54'0 0.2
2018-Jun-15 00:31N 29°22' W 094°54'3 4.6
2018-Jun-14 23:56N 29°23' W 094°52'2 5.8
2018-Jun-14 23:31N 29°22' W 094°49'6 3.2
2018-Jun-14 21:45N 29°25' W 094°44'1 3.7
2018-Jun-14 21:21N 29°24' W 094°45'1 3.6
2018-Jun-14 21:00N 29°23' W 094°46'2 3.8
2018-Jun-14 20:30N 29°22' W 094°48'2 3.6
2018-Jun-14 20:00N 29°22' W 094°50'2 4.3
2018-Jun-14 19:30N 29°23' W 094°52'1 1.7
2018-Jun-14 18:41N 29°22' W 094°53'0 0.0
2018-Jun-14 09:25N 29°22' W 094°53'0 0.0
2018-Jun-14 08:49N 29°22' W 094°53'0 0.0
2018-Jun-14 08:13N 29°22' W 094°53'0 0.0
2018-Jun-14 07:31N 29°22' W 094°53'0 0.0
2018-Jun-14 07:28N 29°22' W 094°53'0 0.0
2018-Jun-14 04:22N 29°22' W 094°53'0 0.0
2018-Jun-14 00:46N 29°22' W 094°53'0 0.0
2018-Jun-14 00:10N 29°22' W 094°53'0 0.0
2018-Jun-13 23:58N 29°22' W 094°53'0 0.0
2018-Jun-13 22:07N 29°22' W 094°53'0 0.0
2018-Jun-13 21:58N 29°22' W 094°53'0 0.0
2018-Jun-13 19:23N 29°22' W 094°53'1 1.7
2018-Jun-13 19:00N 29°22' W 094°54'1 1.2
2018-Jun-13 18:26N 29°22' W 094°53'1 3.1
2018-Jun-13 17:59N 29°23' W 094°52'3 5.4
2018-Jun-13 17:29N 29°22' W 094°49'13 5.1
2018-Jun-13 14:56N 29°34' W 094°55'3 5.3
2018-Jun-13 14:22N 29°36' W 094°57'2 5.5
2018-Jun-13 14:00N 29°38' W 094°58'3 5.3
2018-Jun-13 13:30N 29°41' W 094°59'2 0.1
2018-Jun-12 18:16N 29°42' W 095°01'2 4.8
2018-Jun-12 17:55N 29°42' W 094°59'2 0.5
2018-Jun-12 12:39N 29°41' W 094°57'1 4.0
2018-Jun-12 12:20N 29°41' W 094°58'1 3.7
2018-Jun-12 12:00N 29°41' W 094°59'  
2018-Jun-09 06:43N 29°46' W 095°05'1 2.7
2018-Jun-09 06:12N 29°45' W 095°06'0 0.2
2018-Jun-09 04:05N 29°45' W 095°06'0 2.6
2018-Jun-09 03:56N 29°45' W 095°06'2 1.9
2018-Jun-09 02:55N 29°47' W 095°04'0 0.1
2018-Jun-09 02:29N 29°47' W 095°04'0 0.0
2018-Jun-09 01:58N 29°47' W 095°04'0 0.0
2018-Jun-09 01:29N 29°47' W 095°04'4 0.2
2018-Jun-08 06:38N 29°43' W 095°03'0 0.9
2018-Jun-08 06:28N 29°43' W 095°03'0 0.0
2018-Jun-08 03:02N 29°43' W 095°03'0 0.0
2018-Jun-08 02:44N 29°43' W 095°03'2 0.1
2018-Jun-07 07:43N 29°42' W 095°01'1 5.4
2018-Jun-07 07:28N 29°42' W 094°59'2 4.2
2018-Jun-07 06:56N 29°41' W 094°57'1 3.1
2018-Jun-07 06:30N 29°41' W 094°55'1 1.8
2018-Jun-07 06:00N 29°42' W 094°56'3 1.8
2018-Jun-07 04:28N 29°45' W 094°56'3 0.9
2018-Jun-07 01:23N 29°42' W 094°56'2 1.9
2018-Jun-07 00:35N 29°40' W 094°56'1 4.5
2018-Jun-07 00:23N 29°41' W 094°57'2 3.8
2018-Jun-06 23:59N 29°41' W 094°59'5 0.4
2018-Jun-06 10:26N 29°37' W 094°57'3 6.6
2018-Jun-06 09:56N 29°34' W 094°55'3 6.6
2018-Jun-06 09:27N 29°31' W 094°53'8 5.7
2018-Jun-06 08:00N 29°24' W 094°49'2 4.0
2018-Jun-06 07:30N 29°22' W 094°49'3 6.2
2018-Jun-06 07:00N 29°23' W 094°52'1 2.1
2018-Jun-06 06:29N 29°22' W 094°54'0 0.0
2018-Jun-06 05:59N 29°22' W 094°54'0 0.2
2018-Jun-06 05:25N 29°22' W 094°53'1 2.0
2018-Jun-06 04:58N 29°22' W 094°54'1 1.0
2018-Jun-06 04:02N 29°22' W 094°53'0 0.6
2018-Jun-06 04:00N 29°22' W 094°53'0 0.0
2018-Jun-05 23:19N 29°22' W 094°53'0 0.0
2018-Jun-05 09:27N 29°22' W 094°53'0 0.1
2018-Jun-05 08:56N 29°22' W 094°53'  

Dump ship's entire track history